Post Oak, Texas
Current Conditions -  °F | °C
As of 7:15 PM on Friday 28 Nov 2014 (Local Time) from KGYB Reporting Station
Clear Clear  
Wind Chill: 62°   Ceiling: Unl
Heat Index: 62°   Visibility: 10mi
Dew Point: 49°   Wind: 3mph
Humidity: 64%   Direction: 180°S
Pressure: 30.16"   Gusts: NA
Location:  30.2279°N, 96.7713°W
Report Text: KGYB 290115Z AUTO 18003KT 10SM CLR 17/10 A3016 RMK AO2 T01650096
Loading
Personal Weather Stations






























Interactive Weather Map New forecast layout! Learn more

10-Day Weather Forecast

Advertisements
Track Severe Weather on mobile